Time;durP1;ratioP1;P1;durP2;ratioP2;P2;SDS_P1;SDS_P2;PMS_P1;PMS_P2;Temp;Humidity;BMP_temperature;BMP_pressure;BME280_temperature;BME280_humidity;BME280_pressure;Samples;Min_cycle;Max_cycle;Signal;HPM_P1;HPM_P2
2021/03/19 00:01:42;;;;;;;18.73;9.00;;;0.00;99.90;;;;;;4424622;32;20147;-72
2021/03/19 00:04:26;;;;;;;17.93;9.43;;;-0.10;99.90;;;;;;4425742;32;20151;-72
2021/03/19 00:07:07;;;;;;;21.03;9.80;;;-0.20;99.90;;;;;;4413757;32;20404;-72
2021/03/19 00:09:37;;;;;;;20.57;9.57;;;-0.20;99.90;;;;;;4427340;32;20151;-72
2021/03/19 00:12:17;;;;;;;15.40;8.63;;;-0.30;99.90;;;;;;4427955;32;20377;-72
2021/03/19 00:14:54;;;;;;;16.90;8.70;;;-0.30;99.90;;;;;;4427817;32;20213;-72
2021/03/19 00:17:34;;;;;;;17.07;8.53;;;-0.30;99.90;;;;;;4427605;32;20214;-72
2021/03/19 00:20:20;;;;;;;14.20;8.10;;;-0.30;99.90;;;;;;4429292;32;20163;-73
2021/03/19 00:23:03;;;;;;;15.43;8.17;;;-0.40;99.90;;;;;;4427419;32;20159;-72
2021/03/19 00:26:01;;;;;;;17.30;8.53;;;-0.40;99.90;;;;;;4427440;32;20162;-71
2021/03/19 00:28:30;;;;;;;16.00;7.77;;;-0.50;99.90;;;;;;4429181;32;20202;-71
2021/03/19 00:34:15;;;;;;;15.80;8.07;;;-0.40;99.90;;;;;;4364913;32;20490;-73
2021/03/19 00:36:58;;;;;;;13.00;7.20;;;-0.40;99.90;;;;;;4364390;32;20603;-72
2021/03/19 00:39:39;;;;;;;15.37;8.10;;;-0.50;99.90;;;;;;4364245;32;20191;-72
2021/03/19 00:42:25;;;;;;;18.97;9.40;;;-0.50;99.90;;;;;;4363849;32;20198;-72
2021/03/19 00:45:06;;;;;;;22.67;11.37;;;-0.60;99.90;;;;;;4363527;32;20176;-72
2021/03/19 00:47:34;;;;;;;21.07;10.57;;;-0.50;99.90;;;;;;4364643;32;20434;-72
2021/03/19 00:50:02;;;;;;;24.20;10.83;;;-0.60;99.90;;;;;;4364065;32;20156;-72
2021/03/19 00:52:29;;;;;;;21.90;10.63;;;-0.70;99.90;;;;;;4364613;32;20175;-72
2021/03/19 00:54:55;;;;;;;24.97;11.77;;;-0.80;99.90;;;;;;4363770;32;20226;-71
2021/03/19 00:57:22;;;;;;;23.17;12.37;;;-0.80;99.90;;;;;;4365376;32;20176;-72
2021/03/19 00:59:48;;;;;;;32.90;18.23;;;-0.80;99.90;;;;;;4365384;32;20156;-72
2021/03/19 01:02:14;;;;;;;39.40;20.30;;;-0.90;99.90;;;;;;4363864;32;20148;-72
2021/03/19 01:04:42;;;;;;;39.67;21.57;;;-1.10;99.90;;;;;;4364808;32;20156;-72
2021/03/19 01:07:08;;;;;;;41.37;22.27;;;-1.20;99.90;;;;;;4364109;32;20152;-72
2021/03/19 01:09:35;;;;;;;42.93;22.47;;;-1.20;99.90;;;;;;4363259;32;20144;-72
2021/03/19 01:12:01;;;;;;;38.73;20.50;;;-1.20;99.90;;;;;;4422335;32;20151;-72
2021/03/19 01:14:28;;;;;;;38.57;18.67;;;-1.30;99.90;;;;;;4427227;32;20398;-72
2021/03/19 01:16:54;;;;;;;37.90;18.87;;;-1.30;99.90;;;;;;4426999;32;20469;-72
2021/03/19 01:19:21;;;;;;;36.03;17.67;;;-1.30;99.90;;;;;;4427690;32;20174;-72
2021/03/19 01:21:47;;;;;;;36.30;17.10;;;-1.50;99.90;;;;;;4426327;32;20143;-72
2021/03/19 01:24:14;;;;;;;36.33;17.17;;;-1.70;99.90;;;;;;4426933;32;20206;-72
2021/03/19 01:26:40;;;;;;;34.53;16.30;;;-1.70;99.90;;;;;;4426022;32;20177;-72
2021/03/19 01:29:08;;;;;;;30.57;15.03;;;-1.80;99.90;;;;;;4426195;32;20244;-72
2021/03/19 01:31:34;;;;;;;31.50;15.30;;;-1.70;99.90;;;;;;4425517;32;20147;-72
2021/03/19 01:34:01;;;;;;;30.47;14.47;;;-1.70;99.90;;;;;;4427555;32;20341;-72
2021/03/19 01:36:32;;;;;;;31.10;13.60;;;-1.70;99.90;;;;;;4427029;32;20143;-72
2021/03/19 01:38:59;;;;;;;28.43;13.23;;;-1.70;99.90;;;;;;4425970;32;20152;-72
2021/03/19 01:41:25;;;;;;;29.33;13.70;;;-1.70;99.90;;;;;;4425851;32;20201;-72
2021/03/19 01:44:20;;;;;;;29.77;14.17;;;-1.80;99.90;;;;;;4425837;32;20180;-72
2021/03/19 01:47:26;;;;;;;27.67;13.37;;;-1.80;99.90;;;;;;4348494;33;20218;-72
2021/03/19 01:50:35;;;;;;;29.20;13.20;;;-1.80;99.90;;;;;;4349046;33;20160;-72
2021/03/19 01:53:43;;;;;;;29.77;13.50;;;-1.80;99.90;;;;;;4348089;33;20156;-72
2021/03/19 01:56:48;;;;;;;28.10;12.70;;;-1.80;99.90;;;;;;4349177;33;20286;-72
2021/03/19 01:59:58;;;;;;;27.30;13.03;;;-1.80;99.90;;;;;;4348290;33;20149;-72
2021/03/19 02:03:22;;;;;;;27.80;13.00;;;-1.80;99.90;;;;;;4348768;33;20176;-72
2021/03/19 02:06:37;;;;;;;26.80;12.80;;;-1.80;99.90;;;;;;4348173;33;20164;-72
2021/03/19 02:09:41;;;;;;;28.03;12.67;;;-1.90;99.90;;;;;;4276111;33;20311;-72
2021/03/19 02:12:45;;;;;;;28.47;12.57;;;-1.90;99.90;;;;;;4275700;33;20154;-72
2021/03/19 02:15:51;;;;;;;27.33;12.70;;;-1.90;99.90;;;;;;4274950;33;20176;-72
2021/03/19 02:19:04;;;;;;;27.70;12.27;;;-1.90;99.90;;;;;;4275273;33;20387;-72
2021/03/19 02:22:26;;;;;;;30.70;12.67;;;-1.90;99.90;;;;;;4275201;33;20158;-72
2021/03/19 02:25:48;;;;;;;26.50;12.57;;;-2.00;99.90;;;;;;4344952;33;20260;-72
2021/03/19 02:29:03;;;;;;;24.60;11.70;;;-2.00;99.90;;;;;;4348031;33;20218;-72
2021/03/19 02:32:12;;;;;;;26.67;12.53;;;-2.10;99.90;;;;;;4348588;33;20194;-72
2021/03/19 02:34:54;;;;;;;27.03;12.23;;;-2.10;99.90;;;;;;4304539;33;20208;-72
2021/03/19 02:37:42;;;;;;;25.90;12.33;;;-2.10;99.90;;;;;;4303762;33;20188;-72
2021/03/19 02:40:28;;;;;;;26.03;13.00;;;-2.10;99.90;;;;;;4303443;33;20217;-72
2021/03/19 02:42:59;;;;;;;25.77;12.40;;;-2.20;99.90;;;;;;4303347;33;20200;-72
2021/03/19 02:45:34;;;;;;;26.77;12.90;;;-2.20;99.90;;;;;;4329917;33;20288;-72
2021/03/19 02:48:25;;;;;;;29.37;13.27;;;-2.20;99.90;;;;;;4347557;33;20174;-72
2021/03/19 02:51:02;;;;;;;26.73;13.10;;;-2.20;99.90;;;;;;4348304;33;20172;-72
2021/03/19 02:53:39;;;;;;;26.57;11.80;;;-2.30;99.90;;;;;;4348557;33;20203;-72
2021/03/19 02:56:10;;;;;;;27.03;12.97;;;-2.30;99.90;;;;;;4347967;33;20381;-72
2021/03/19 02:58:59;;;;;;;26.07;12.10;;;-2.30;99.90;;;;;;4348840;33;20181;-72
2021/03/19 03:01:32;;;;;;;26.10;12.13;;;-2.30;99.90;;;;;;4346902;33;20240;-72
2021/03/19 03:04:09;;;;;;;27.07;12.00;;;-2.30;99.90;;;;;;4347658;33;20187;-72
2021/03/19 03:06:57;;;;;;;23.67;11.67;;;-2.30;99.90;;;;;;4347718;33;20149;-72
2021/03/19 03:09:40;;;;;;;27.50;12.23;;;-2.30;99.90;;;;;;4404624;32;20181;-72
2021/03/19 03:12:29;;;;;;;;;;;;;;;;;;;;;
2021/03/19 03:15:06;;;;;;;30.33;12.17;;;-2.30;99.90;;;;;;4424202;32;20151;-72
2021/03/19 03:17:47;;;;;;;28.13;12.67;;;-2.40;99.90;;;;;;4424642;32;20190;-72
2021/03/19 03:20:30;;;;;;;26.90;12.33;;;-2.40;99.90;;;;;;4424591;32;20165;-72
2021/03/19 03:23:09;;;;;;;27.00;12.20;;;-2.30;99.90;;;;;;4424789;32;20162;-72
2021/03/19 03:25:42;;;;;;;26.43;12.03;;;-2.30;99.90;;;;;;4424077;32;20208;-72
2021/03/19 03:28:16;;;;;;;27.83;12.70;;;-2.30;99.90;;;;;;4426255;32;20137;-72
2021/03/19 03:30:46;;;;;;;27.70;13.03;;;-2.20;99.90;;;;;;4424271;32;20248;-72
2021/03/19 03:33:13;;;;;;;28.13;13.87;;;-2.30;99.90;;;;;;4424945;32;20192;-72
2021/03/19 03:35:41;;;;;;;27.63;12.97;;;-2.30;99.90;;;;;;4425623;32;20184;-72
2021/03/19 03:38:12;;;;;;;28.13;12.63;;;-2.20;99.90;;;;;;4424155;32;20210;-72
2021/03/19 03:40:55;;;;;;;29.13;12.77;;;-2.30;99.90;;;;;;4424008;32;20423;-72
2021/03/19 03:43:22;;;;;;;28.37;12.50;;;-2.10;99.90;;;;;;4424333;32;20196;-72
2021/03/19 03:45:50;;;;;;;26.23;12.43;;;-2.10;99.90;;;;;;4424323;32;20185;-72
2021/03/19 03:48:19;;;;;;;22.90;12.10;;;-2.10;99.90;;;;;;4425649;32;20513;-72
2021/03/19 03:50:47;;;;;;;27.10;12.70;;;-2.00;99.90;;;;;;4425851;32;20503;-72
2021/03/19 03:53:14;;;;;;;26.90;12.93;;;-2.00;99.90;;;;;;4425905;32;20142;-72
2021/03/19 03:55:41;;;;;;;24.97;11.57;;;-2.00;99.90;;;;;;4424583;32;20167;-72
2021/03/19 03:58:10;;;;;;;25.33;11.90;;;-2.00;99.90;;;;;;4424467;32;20193;-72
2021/03/19 04:00:37;;;;;;;23.07;12.00;;;-2.00;99.90;;;;;;4423922;32;20477;-72
2021/03/19 04:03:05;;;;;;;22.77;11.20;;;-2.00;99.90;;;;;;4425155;32;20386;-72
2021/03/19 04:05:43;;;;;;;27.40;12.30;;;-2.10;99.90;;;;;;4424884;32;20197;-72
2021/03/19 04:08:13;;;;;;;22.87;11.17;;;-2.10;99.90;;;;;;4424273;32;20150;-72
2021/03/19 04:10:40;;;;;;;27.43;11.70;;;-2.10;99.90;;;;;;4410378;32;20176;-72
2021/03/19 04:13:08;;;;;;;24.17;11.47;;;-1.90;99.90;;;;;;4409985;32;20224;-72
2021/03/19 04:15:35;;;;;;;23.03;11.23;;;-1.90;99.90;;;;;;4424766;32;20151;-72
2021/03/19 04:18:05;;;;;;;24.77;12.43;;;-1.90;99.90;;;;;;4423820;32;20174;-72
2021/03/19 04:20:34;;;;;;;25.67;12.10;;;-1.80;99.90;;;;;;4424982;32;20151;-72
2021/03/19 04:23:02;;;;;;;22.70;11.17;;;-1.80;99.90;;;;;;4424156;32;20174;-72
2021/03/19 04:25:28;;;;;;;27.50;12.10;;;-1.80;99.90;;;;;;4423695;32;20457;-72
2021/03/19 04:28:07;;;;;;;24.80;11.80;;;-1.70;99.90;;;;;;4425607;32;20434;-72
2021/03/19 04:30:39;;;;;;;28.27;12.17;;;-1.60;99.90;;;;;;4423521;32;20155;-72
2021/03/19 04:33:11;;;;;;;24.83;11.63;;;-1.60;99.90;;;;;;4423263;32;20144;-72
2021/03/19 04:35:38;;;;;;;23.23;12.00;;;-1.50;99.90;;;;;;4424747;32;20136;-72
2021/03/19 04:38:09;;;;;;;23.03;11.80;;;-1.50;99.90;;;;;;4423751;32;20141;-71
2021/03/19 04:40:39;;;;;;;26.17;12.03;;;-1.50;99.90;;;;;;4424300;32;20151;-72
2021/03/19 04:43:06;;;;;;;25.00;11.27;;;-1.50;99.90;;;;;;4411055;32;20144;-72
2021/03/19 04:45:32;;;;;;;23.97;12.40;;;-1.40;99.90;;;;;;4423830;32;20146;-72
2021/03/19 04:47:59;;;;;;;28.10;12.97;;;-1.40;99.90;;;;;;4423949;32;20174;-72
2021/03/19 04:50:25;;;;;;;28.23;12.33;;;-1.40;99.90;;;;;;4425244;32;20139;-72
2021/03/19 04:52:54;;;;;;;24.87;12.53;;;-1.30;99.90;;;;;;4427424;32;20206;-72
2021/03/19 04:55:20;;;;;;;27.47;12.07;;;-1.30;99.90;;;;;;4426456;32;20147;-72
2021/03/19 04:57:47;;;;;;;26.83;12.47;;;-1.30;99.90;;;;;;4426503;32;20208;-72
2021/03/19 05:00:15;;;;;;;23.43;12.10;;;-1.20;99.90;;;;;;4426541;32;20465;-72
2021/03/19 05:02:47;;;;;;;26.33;12.40;;;-1.20;99.90;;;;;;4426730;32;20205;-72
2021/03/19 05:05:24;;;;;;;24.57;11.60;;;-1.40;99.90;;;;;;4426241;32;20208;-72
2021/03/19 05:07:51;;;;;;;29.20;12.27;;;-1.30;99.90;;;;;;4428012;32;20163;-72
2021/03/19 05:10:20;;;;;;;29.70;12.23;;;-1.20;99.90;;;;;;4426220;32;20139;-72
2021/03/19 05:12:47;;;;;;;28.23;12.03;;;-1.20;99.90;;;;;;4425757;32;20209;-71
2021/03/19 05:15:14;;;;;;;26.83;11.77;;;-1.20;99.90;;;;;;4426240;32;20512;-72
2021/03/19 05:17:41;;;;;;;23.07;12.03;;;-1.20;99.90;;;;;;4426282;32;20209;-72
2021/03/19 05:20:11;;;;;;;24.80;11.97;;;-1.20;99.90;;;;;;4426297;32;20163;-72
2021/03/19 05:22:38;;;;;;;26.13;12.53;;;-1.10;99.90;;;;;;4413038;32;20189;-72
2021/03/19 05:25:08;;;;;;;27.43;12.27;;;-1.00;99.90;;;;;;4427033;32;20154;-72
2021/03/19 05:27:36;;;;;;;26.27;12.30;;;-1.00;99.90;;;;;;4425428;32;20139;-72
2021/03/19 05:30:05;;;;;;;22.87;11.77;;;-0.90;99.90;;;;;;4425574;32;20196;-73
2021/03/19 05:32:32;;;;;;;25.30;12.30;;;-0.90;99.90;;;;;;4426506;32;20150;-72
2021/03/19 05:34:59;;;;;;;24.90;12.17;;;-0.80;99.90;;;;;;4426511;32;20147;-72
2021/03/19 05:37:26;;;;;;;27.70;12.53;;;-0.70;99.90;;;;;;4424529;32;20202;-72
2021/03/19 05:39:53;;;;;;;24.70;12.23;;;-0.70;99.90;;;;;;4429348;32;20541;-72
2021/03/19 05:42:27;;;;;;;26.07;12.43;;;-0.70;99.90;;;;;;4429804;32;20167;-72
2021/03/19 05:45:23;;;;;;;26.83;13.10;;;-0.70;99.90;;;;;;4432157;32;20154;-72
2021/03/19 05:47:56;;;;;;;28.83;12.67;;;-0.70;99.90;;;;;;4416963;32;20198;-72
2021/03/19 05:50:30;;;;;;;26.73;13.03;;;-0.60;99.90;;;;;;4429508;32;20196;-72
2021/03/19 05:53:11;;;;;;;28.97;13.50;;;-0.70;99.90;;;;;;4425330;32;20184;-72
2021/03/19 05:55:39;;;;;;;27.73;13.30;;;-0.70;99.90;;;;;;4425890;32;20143;-72
2021/03/19 05:58:13;;;;;;;29.13;14.10;;;-0.80;99.90;;;;;;4425314;32;20135;-72
2021/03/19 06:00:40;;;;;;;28.67;13.57;;;-0.80;99.90;;;;;;4425968;32;20177;-72
2021/03/19 06:03:06;;;;;;;29.70;13.70;;;-1.00;99.90;;;;;;4425510;32;20147;-72
2021/03/19 06:06:07;;;;;;;32.20;14.47;;;-0.90;99.90;;;;;;4425706;32;20140;-73
2021/03/19 06:08:37;;;;;;;31.30;14.57;;;-0.80;99.90;;;;;;4427255;32;20147;-72
2021/03/19 06:11:16;;;;;;;35.50;15.30;;;-0.80;99.90;;;;;;4425407;32;20194;-72
2021/03/19 06:13:54;;;;;;;31.00;14.30;;;-0.90;99.90;;;;;;4426973;32;20181;-72
2021/03/19 06:16:42;;;;;;;32.27;14.47;;;-0.90;99.90;;;;;;4427101;32;20150;-72
2021/03/19 06:19:38;;;;;;;30.40;13.30;;;-0.90;99.90;;;;;;4425943;32;20229;-72
2021/03/19 06:22:21;;;;;;;27.23;13.10;;;-0.80;99.90;;;;;;4426486;32;20190;-73
2021/03/19 06:25:09;;;;;;;29.47;13.53;;;-0.70;99.90;;;;;;4412576;32;20555;-71
2021/03/19 06:27:40;;;;;;;26.60;12.30;;;-0.50;99.90;;;;;;4426593;32;20149;-71
2021/03/19 06:30:21;;;;;;;29.63;13.63;;;-0.50;99.90;;;;;;4425166;32;20253;-71
2021/03/19 06:33:00;;;;;;;33.43;14.53;;;-0.60;99.90;;;;;;4426276;32;20206;-73
2021/03/19 06:35:36;;;;;;;31.07;14.10;;;-0.50;99.90;;;;;;4426321;32;20576;-72
2021/03/19 06:38:30;;;;;;;36.93;15.60;;;-0.40;99.90;;;;;;4424979;32;20154;-73
2021/03/19 06:41:15;;;;;;;26.17;13.43;;;-0.30;99.90;;;;;;4425021;32;20208;-73
2021/03/19 06:43:43;;;;;;;33.83;15.80;;;-0.20;99.90;;;;;;4426286;32;20139;-72
2021/03/19 06:46:43;;;;;;;31.10;14.20;;;0.00;99.90;;;;;;4424946;32;20165;-72
2021/03/19 06:49:10;;;;;;;30.47;14.07;;;0.30;99.90;;;;;;4425668;32;20138;-72
2021/03/19 06:52:11;;;;;;;26.10;13.23;;;0.50;99.90;;;;;;4425862;32;20209;-72
2021/03/19 06:55:05;;;;;;;25.17;11.83;;;0.70;99.90;;;;;;4415461;32;20167;-72
2021/03/19 06:57:46;;;;;;;23.07;11.63;;;0.90;99.90;;;;;;4423725;32;20434;-72
2021/03/19 07:00:39;;;;;;;24.40;12.10;;;0.90;99.90;;;;;;4425961;32;20143;-72
2021/03/19 07:03:24;;;;;;;24.00;11.47;;;1.00;99.90;;;;;;4425896;32;20184;-72
2021/03/19 07:06:15;;;;;;;21.80;10.57;;;0.90;99.90;;;;;;4422752;32;20200;-72
2021/03/19 07:09:02;;;;;;;21.53;11.10;;;1.00;99.90;;;;;;4423861;32;20154;-72
2021/03/19 07:11:54;;;;;;;20.80;10.23;;;1.30;99.90;;;;;;4424679;32;20196;-71
2021/03/19 07:15:03;;;;;;;21.80;9.70;;;1.40;99.90;;;;;;4424178;32;20193;-72
2021/03/19 07:17:50;;;;;;;19.07;9.43;;;1.60;99.90;;;;;;4425378;32;20201;-72
2021/03/19 07:20:23;;;;;;;18.73;9.80;;;1.70;99.90;;;;;;4422752;32;20444;-72
2021/03/19 07:23:12;;;;;;;18.63;9.57;;;1.80;99.90;;;;;;4425401;32;20383;-72
2021/03/19 07:25:56;;;;;;;18.47;9.17;;;1.90;99.90;;;;;;4423769;32;20426;-74
2021/03/19 07:28:46;;;;;;;19.13;9.10;;;2.10;99.90;;;;;;4425274;32;20166;-72
2021/03/19 07:31:51;;;;;;;16.43;8.63;;;2.40;99.90;;;;;;4424974;32;20170;-75
2021/03/19 07:34:46;;;;;;;17.27;8.57;;;2.10;99.90;;;;;;4363362;32;20402;-75
2021/03/19 07:37:22;;;;;;;16.03;8.10;;;2.50;99.90;;;;;;4362011;32;20160;-74
2021/03/19 07:40:04;;;;;;;16.00;8.03;;;2.20;99.90;;;;;;4361910;32;20163;-73
2021/03/19 07:42:50;;;;;;;15.60;8.10;;;2.10;99.90;;;;;;4362239;32;20211;-73
2021/03/19 07:45:27;;;;;;;14.33;7.80;;;2.20;99.90;;;;;;4353879;32;20157;-73
2021/03/19 07:48:49;;;;;;;14.00;7.80;;;2.50;99.90;;;;;;4347652;33;20179;-73
2021/03/19 07:51:41;;;;;;;17.10;7.10;;;2.80;99.90;;;;;;4303700;33;20208;-72
2021/03/19 07:54:07;;;;;;;12.13;6.77;;;2.70;99.90;;;;;;4304128;33;20481;-71
2021/03/19 07:56:52;;;;;;;15.60;8.50;;;2.30;99.90;;;;;;4302205;33;20154;-70
2021/03/19 07:59:59;;;;;;;17.73;8.30;;;2.20;99.90;;;;;;4303163;33;20176;-72
2021/03/19 08:02:47;;;;;;;15.67;8.80;;;2.20;99.90;;;;;;4242491;33;20243;-73
2021/03/19 08:05:20;;;;;;;18.07;9.03;;;1.90;99.90;;;;;;4255799;33;20482;-74
2021/03/19 08:08:15;;;;;;;18.10;9.37;;;1.90;99.90;;;;;;4275727;33;20274;-73
2021/03/19 08:11:02;;;;;;;17.40;10.20;;;2.00;99.90;;;;;;4263182;33;20147;-74
2021/03/19 08:13:39;;;;;;;21.90;10.87;;;2.10;99.90;;;;;;4281025;33;20210;-72
2021/03/19 08:16:14;;;;;;;20.47;10.93;;;1.80;99.90;;;;;;4281807;33;20162;-72
2021/03/19 08:19:06;;;;;;;20.90;11.37;;;1.80;99.90;;;;;;4260509;33;20170;-73
2021/03/19 08:21:51;;;;;;;19.70;10.77;;;1.80;99.90;;;;;;4259186;33;20241;-74
2021/03/19 08:24:50;;;;;;;19.13;10.13;;;1.90;99.90;;;;;;4276299;33;20144;-72
2021/03/19 08:27:39;;;;;;;20.43;11.07;;;2.30;99.90;;;;;;4336468;33;20174;-72
2021/03/19 08:30:21;;;;;;;21.40;10.97;;;2.50;99.90;;;;;;4335920;33;20532;-73
2021/03/19 08:33:00;;;;;;;22.43;11.47;;;2.80;99.90;;;;;;4350389;33;20196;-72
2021/03/19 08:35:46;;;;;;;17.20;10.60;;;3.40;99.90;;;;;;4355525;32;20160;-73
2021/03/19 08:38:36;;;;;;;17.83;9.67;;;3.90;99.40;;;;;;4428140;32;20144;-72
2021/03/19 08:41:08;;;;;;;19.07;10.00;;;3.70;99.30;;;;;;4426609;32;20538;-73
2021/03/19 08:43:41;;;;;;;20.73;10.23;;;4.00;99.90;;;;;;4426350;32;20147;-73
2021/03/19 08:46:31;;;;;;;19.97;10.70;;;4.00;97.40;;;;;;4426971;32;20206;-72
2021/03/19 08:49:03;;;;;;;17.13;10.47;;;3.60;97.40;;;;;;4427664;32;20481;-70
2021/03/19 08:51:32;;;;;;;18.03;10.17;;;4.10;98.50;;;;;;4427861;32;20144;-72
2021/03/19 08:54:12;;;;;;;18.30;9.60;;;4.80;97.00;;;;;;4425916;32;20131;-72
2021/03/19 08:57:02;;;;;;;17.87;9.30;;;5.20;92.20;;;;;;4426531;32;20183;-71
2021/03/19 08:59:32;;;;;;;15.77;9.83;;;5.10;91.80;;;;;;4425791;32;20397;-71
2021/03/19 09:02:00;;;;;;;17.97;10.20;;;4.90;91.00;;;;;;4426442;32;20493;-73
2021/03/19 09:04:52;;;;;;;19.87;10.60;;;5.20;91.60;;;;;;4425977;32;20443;-71
2021/03/19 09:07:30;;;;;;;17.60;9.63;;;5.90;89.90;;;;;;4426503;32;20407;-72
2021/03/19 09:10:25;;;;;;;17.97;10.10;;;6.20;87.10;;;;;;4426448;32;20143;-71
2021/03/19 09:12:55;;;;;;;16.10;9.43;;;6.70;85.40;;;;;;4426317;32;20474;-72
2021/03/19 09:15:24;;;;;;;14.70;7.07;;;6.70;80.50;;;;;;4426066;32;20512;-74
2021/03/19 09:18:33;;;;;;;12.23;7.37;;;6.30;77.40;;;;;;4426019;32;20134;-74
2021/03/19 09:21:09;;;;;;;17.17;9.43;;;6.20;78.60;;;;;;4424850;32;20193;-73
2021/03/19 09:24:00;;;;;;;15.40;8.63;;;5.70;79.80;;;;;;4426281;32;20169;-73
2021/03/19 09:26:56;;;;;;;13.60;8.33;;;5.30;83.20;;;;;;4425423;32;20451;-73
2021/03/19 09:29:39;;;;;;;12.27;7.20;;;5.50;84.60;;;;;;4426827;32;20420;-75
2021/03/19 09:32:39;;;;;;;12.03;6.53;;;5.20;81.30;;;;;;4426248;32;20218;-71
2021/03/19 09:35:45;;;;;;;13.97;7.67;;;4.70;83.20;;;;;;4425927;32;20204;-71
2021/03/19 09:38:33;;;;;;;17.37;8.70;;;4.50;87.50;;;;;;4425405;32;20151;-72
2021/03/19 09:41:07;;;;;;;20.10;10.60;;;4.30;90.00;;;;;;4348445;33;20161;-73
2021/03/19 09:44:42;;;;;;;20.67;10.63;;;3.70;91.20;;;;;;4348977;33;20175;-73
2021/03/19 09:47:24;;;;;;;19.33;10.23;;;3.20;93.60;;;;;;4277013;33;20249;-73
2021/03/19 09:50:23;;;;;;;20.47;10.83;;;2.90;95.20;;;;;;4275456;33;20161;-73
2021/03/19 09:53:10;;;;;;;23.43;10.90;;;2.90;96.20;;;;;;4276233;33;20162;-73
2021/03/19 09:55:49;;;;;;;20.90;11.43;;;2.90;96.50;;;;;;4275355;33;20145;-74
2021/03/19 09:58:41;;;;;;;22.47;10.83;;;2.70;97.40;;;;;;4275917;33;20154;-73
2021/03/19 10:01:26;;;;;;;20.57;10.90;;;2.60;98.00;;;;;;4275324;33;20249;-73
2021/03/19 10:04:06;;;;;;;21.00;10.90;;;2.50;98.30;;;;;;4275908;33;20170;-74
2021/03/19 10:06:54;;;;;;;22.57;11.53;;;2.80;98.10;;;;;;4275453;33;20287;-73
2021/03/19 10:09:39;;;;;;;23.60;10.70;;;2.90;98.30;;;;;;4276860;33;20471;-73
2021/03/19 10:12:44;;;;;;;22.43;10.17;;;3.00;97.60;;;;;;4276497;33;20170;-73
2021/03/19 10:15:34;;;;;;;20.57;10.00;;;3.20;96.10;;;;;;4219066;34;20159;-75
2021/03/19 10:18:10;;;;;;;19.03;9.87;;;3.50;95.30;;;;;;4245655;33;20505;-74
2021/03/19 10:21:05;;;;;;;19.07;10.20;;;3.70;94.70;;;;;;4275155;33;20162;-72
2021/03/19 10:24:00;;;;;;;17.53;9.40;;;3.70;94.20;;;;;;4333524;33;20153;-73
2021/03/19 10:26:53;;;;;;;18.47;9.00;;;3.70;93.70;;;;;;4347604;33;20171;-73
2021/03/19 10:29:39;;;;;;;18.43;9.60;;;3.50;93.00;;;;;;4348090;33;20153;-71
2021/03/19 10:32:26;;;;;;;16.60;8.73;;;3.00;93.60;;;;;;4347884;33;20152;-72
2021/03/19 10:35:30;;;;;;;15.87;8.73;;;2.60;95.00;;;;;;4347595;33;20161;-71
2021/03/19 10:38:27;;;;;;;16.87;8.67;;;2.60;95.40;;;;;;4303829;33;20158;-73
2021/03/19 10:41:28;;;;;;;15.27;8.00;;;2.80;95.00;;;;;;4303924;33;20157;-72
2021/03/19 10:44:02;;;;;;;16.13;8.30;;;2.60;95.50;;;;;;4303477;33;20383;-73
2021/03/19 10:47:23;;;;;;;15.47;8.03;;;3.00;95.70;;;;;;4295622;33;20165;-72
2021/03/19 10:50:17;;;;;;;17.87;8.10;;;3.40;94.20;;;;;;4293131;33;20160;-73
2021/03/19 10:53:11;;;;;;;14.40;7.77;;;4.60;93.20;;;;;;4303336;33;20200;-73
2021/03/19 10:55:56;;;;;;;13.30;6.97;;;5.90;86.90;;;;;;4304836;33;20209;-74
2021/03/19 10:58:59;;;;;;;14.83;6.57;;;6.80;78.70;;;;;;4303187;33;20230;-74
2021/03/19 11:01:55;;;;;;;9.53;5.33;;;6.80;75.50;;;;;;4302819;33;20157;-74
2021/03/19 11:05:04;;;;;;;14.80;6.77;;;6.70;73.00;;;;;;4302247;33;20252;-73
2021/03/19 11:07:46;;;;;;;13.30;7.37;;;6.50;74.00;;;;;;4303379;33;20539;-74
2021/03/19 11:10:42;;;;;;;15.23;7.47;;;5.60;75.70;;;;;;4308581;33;20164;-74
2021/03/19 11:13:29;;;;;;;11.43;6.90;;;5.40;78.70;;;;;;4347255;33;20450;-73
2021/03/19 11:16:26;;;;;;;12.23;6.87;;;5.70;78.30;;;;;;4421838;32;20514;-74
2021/03/19 11:19:49;;;;;;;13.97;6.57;;;6.30;76.90;;;;;;4424619;32;20200;-74
2021/03/19 11:22:37;;;;;;;12.07;5.73;;;7.60;72.60;;;;;;4302668;33;20262;-74
2021/03/19 11:25:39;;;;;;;8.57;5.43;;;8.10;68.80;;;;;;4245801;33;20174;-76
2021/03/19 11:28:22;;;;;;;7.50;4.83;;;9.20;65.90;;;;;;4176095;34;20567;-74
2021/03/19 11:31:22;;;;;;;9.23;4.97;;;9.90;57.10;;;;;;4175806;34;20496;-72
2021/03/19 11:37:35;;;;;;;10.13;4.43;;;8.90;57.20;;;;;;4176025;34;20212;-73
2021/03/19 11:40:25;;;;;;;7.53;4.43;;;8.90;57.80;;;;;;4149706;34;20247;-73
2021/03/19 11:43:06;;;;;;;7.43;4.40;;;8.50;59.40;;;;;;4148969;34;20355;-73
2021/03/19 11:45:45;;;;;;;10.63;5.60;;;8.80;60.40;;;;;;4138520;34;20567;-73
2021/03/19 11:48:49;;;;;;;10.53;4.80;;;9.00;58.00;;;;;;4149113;34;20191;-73
2021/03/19 11:51:34;;;;;;;8.77;4.33;;;9.50;56.70;;;;;;4148826;34;20188;-73
2021/03/19 11:54:51;;;;;;;7.77;4.50;;;11.10;54.10;;;;;;4138394;34;20566;-73
2021/03/19 11:57:01;;;;;;;8.70;4.90;;;12.70;50.60;;;;;;4148078;34;20215;-71
2021/03/19 11:59:48;;;;;;;8.37;5.00;;;13.40;49.40;;;;;;4207115;34;20478;-74
2021/03/19 12:03:08;;;;;;;8.43;4.57;;;13.60;47.20;;;;;;4233853;33;20146;-74
2021/03/19 12:05:44;;;;;;;6.13;4.03;;;12.90;46.80;;;;;;4235346;33;20142;-73
2021/03/19 12:08:29;;;;;;;7.37;4.47;;;12.10;48.70;;;;;;4264367;33;20272;-74
2021/03/19 12:11:13;;;;;;;9.20;4.70;;;11.20;49.40;;;;;;4262904;33;20411;-73
2021/03/19 12:13:46;;;;;;;8.97;5.20;;;10.30;50.50;;;;;;4299124;33;20192;-74
2021/03/19 12:16:26;;;;;;;10.53;5.00;;;9.50;53.70;;;;;;4320232;33;20149;-74
2021/03/19 12:19:15;;;;;;;9.33;4.93;;;9.20;55.00;;;;;;4309090;33;20157;-74
2021/03/19 12:22:03;;;;;;;8.67;4.73;;;8.90;55.90;;;;;;4320230;33;20519;-73
2021/03/19 12:25:03;;;;;;;7.23;4.43;;;8.60;56.20;;;;;;4319633;33;20498;-73
2021/03/19 12:27:53;;;;;;;7.47;4.20;;;7.90;57.30;;;;;;4321743;33;20191;-74
2021/03/19 12:31:01;;;;;;;7.77;4.60;;;7.90;59.00;;;;;;4291540;33;20332;-74
2021/03/19 12:33:42;;;;;;;9.47;5.43;;;7.70;59.10;;;;;;4292761;33;20188;-74
2021/03/19 12:36:39;;;;;;;9.70;5.57;;;7.40;60.30;;;;;;4293003;33;20154;-74
2021/03/19 12:39:21;;;;;;;9.97;5.37;;;6.70;61.80;;;;;;4291039;33;20158;-73
2021/03/19 12:41:55;;;;;;;9.70;5.80;;;6.10;63.50;;;;;;4320996;33;20164;-74
2021/03/19 12:44:39;;;;;;;12.00;6.07;;;6.10;65.10;;;;;;4351250;33;20425;-74
2021/03/19 12:47:22;;;;;;;10.90;5.80;;;6.00;65.80;;;;;;4349370;33;20225;-74
2021/03/19 12:49:56;;;;;;;10.23;5.63;;;5.70;67.70;;;;;;4349194;33;20401;-74
2021/03/19 12:52:56;;;;;;;10.37;5.60;;;5.70;67.70;;;;;;4349215;33;20232;-74
2021/03/19 12:55:26;;;;;;;10.23;5.00;;;5.70;68.30;;;;;;4350090;33;20430;-73
2021/03/19 12:58:03;;;;;;;10.03;4.93;;;5.10;69.60;;;;;;4349216;33;20184;-74
2021/03/19 13:00:45;;;;;;;11.00;5.00;;;5.00;70.90;;;;;;4350654;33;20272;-73
2021/03/19 13:03:30;;;;;;;10.23;5.40;;;5.00;71.30;;;;;;4348528;33;20169;-74
2021/03/19 13:06:19;;;;;;;7.80;4.77;;;4.70;72.70;;;;;;4348198;33;20191;-74
2021/03/19 13:09:12;;;;;;;9.57;4.80;;;4.80;73.40;;;;;;4378390;32;20483;-74
2021/03/19 13:12:12;;;;;;;9.87;5.00;;;4.80;72.10;;;;;;4379567;32;20398;-74
2021/03/19 13:15:03;;;;;;;11.43;5.23;;;4.90;72.80;;;;;;4378733;32;20157;-75
2021/03/19 13:17:40;;;;;;;11.33;5.40;;;4.80;72.90;;;;;;4388119;32;20140;-72
2021/03/19 13:20:28;;;;;;;10.60;5.00;;;4.90;73.40;;;;;;4334369;33;20179;-71
2021/03/19 13:26:03;;;;;;;12.47;5.47;;;5.20;72.40;;;;;;4318912;33;20533;-71
2021/03/19 13:28:44;;;;;;;11.43;6.10;;;5.20;72.00;;;;;;4319876;33;20149;-72
2021/03/19 13:31:29;;;;;;;10.07;5.80;;;5.60;72.30;;;;;;4319082;33;20241;-71
2021/03/19 13:34:11;;;;;;;10.30;5.77;;;5.50;71.70;;;;;;4319025;33;20148;-72
2021/03/19 13:36:55;;;;;;;11.67;5.90;;;5.50;71.70;;;;;;4320983;33;20157;-72
2021/03/19 13:39:59;;;;;;;8.67;5.13;;;5.40;71.60;;;;;;4317779;33;20266;-72
2021/03/19 13:42:53;;;;;;;10.00;5.87;;;5.50;72.30;;;;;;4262200;33;20479;-71
2021/03/19 13:46:12;;;;;;;13.13;6.17;;;5.60;71.70;;;;;;4262338;33;20177;-72
2021/03/19 13:48:52;;;;;;;10.13;5.73;;;5.90;71.20;;;;;;4261390;33;20554;-72
2021/03/19 13:51:52;;;;;;;13.03;5.80;;;5.90;69.00;;;;;;4262725;33;20257;-71
2021/03/19 13:54:42;;;;;;;9.00;4.90;;;5.80;68.00;;;;;;4261606;33;20237;-72
2021/03/19 13:57:51;;;;;;;10.17;5.37;;;5.60;67.90;;;;;;4232472;33;20223;-72
2021/03/19 14:00:42;;;;;;;7.80;4.70;;;5.30;69.50;;;;;;4254560;33;20628;-71
2021/03/19 14:03:35;;;;;;;8.57;4.73;;;5.00;69.50;;;;;;4261743;33;20152;-71
2021/03/19 14:06:20;;;;;;;7.37;4.60;;;5.10;68.60;;;;;;4261737;33;20516;-71
2021/03/19 14:09:00;;;;;;;9.70;5.10;;;5.00;69.20;;;;;;4261967;33;20167;-71